Time;durP1;ratioP1;P1;durP2;ratioP2;P2;SDS_P1;SDS_P2;PMS_P1;PMS_P2;Temp;Humidity;BMP_temperature;BMP_pressure;BME280_temperature;BME280_humidity;BME280_pressure;Samples;Min_cycle;Max_cycle;Signal;HPM_P1;HPM_P2
2021/07/14 00:00:54;;;;;;;11.70;9.35;;;;;;;20.57;88.02;99394.48;1749845;82;21046;-66
2021/07/14 00:03:20;;;;;;;10.88;9.85;;;;;;;20.52;88.01;99393.55;1749540;82;21142;-66
2021/07/14 00:05:47;;;;;;;12.35;10.32;;;;;;;20.48;87.98;99393.44;1749419;82;21006;-66
2021/07/14 00:08:13;;;;;;;11.85;10.55;;;;;;;20.45;88.10;99395.01;1749834;82;21507;-66
2021/07/14 00:10:40;;;;;;;13.90;10.23;;;;;;;20.41;88.17;99398.03;1749653;82;21026;-66
2021/07/14 00:13:34;;;;;;;10.00;9.20;;;;;;;20.35;88.44;99391.44;1749510;81;21029;-66
2021/07/14 00:23:43;;;;;;;12.25;11.10;;;;;;;20.29;89.94;99390.14;1749542;82;20970;-66
2021/07/14 00:26:10;;;;;;;10.78;9.83;;;;;;;20.29;90.57;99390.14;1749539;82;21034;-66
2021/07/14 00:28:39;;;;;;;13.15;10.55;;;;;;;20.30;91.16;99391.81;1749537;82;20871;-66
2021/07/14 00:31:13;;;;;;;12.73;11.43;;;;;;;20.30;91.53;99399.73;1749711;82;20931;-66
2021/07/14 00:33:34;;;;;;;12.53;11.28;;;;;;;20.32;91.89;99395.66;1748422;82;20946;-66
2021/07/14 00:36:01;;;;;;;13.25;11.95;;;;;;;20.33;92.22;99391.20;1749469;82;21070;-66
2021/07/14 00:38:27;;;;;;;12.10;11.00;;;;;;;20.35;92.47;99389.28;1749563;81;20975;-66
2021/07/14 00:40:55;;;;;;;10.40;9.30;;;;;;;20.38;92.63;99393.86;1749645;82;21144;-66
2021/07/14 00:43:21;;;;;;;11.15;9.55;;;;;;;20.39;91.69;99392.03;1749469;82;21029;-66
2021/07/14 00:45:48;;;;;;;11.10;9.93;;;;;;;20.38;90.97;99394.34;1749551;82;20982;-66
2021/07/14 00:48:15;;;;;;;11.10;10.13;;;;;;;20.37;90.77;99393.51;1749556;82;21423;-66
2021/07/14 00:50:41;;;;;;;11.97;10.08;;;;;;;20.36;90.56;99399.72;1722434;82;21411;-66
2021/07/14 00:53:09;;;;;;;11.95;10.85;;;;;;;20.35;90.50;99402.48;1749640;81;21026;-66
2021/07/14 00:55:36;;;;;;;11.35;10.25;;;;;;;20.34;90.38;99393.73;1749892;81;20943;-66
2021/07/14 00:58:03;;;;;;;11.65;10.45;;;;;;;20.34;90.33;99392.89;1749508;82;21022;-66
2021/07/14 01:00:30;;;;;;;11.88;10.35;;;;;;;20.31;90.35;99400.58;1749519;82;21007;-66
2021/07/14 01:02:56;;;;;;;15.23;10.45;;;;;;;20.30;90.17;99391.81;1749436;82;20987;-66
2021/07/14 01:05:31;;;;;;;12.68;9.65;;;;;;;20.29;90.08;99391.45;1749442;82;21091;-66
2021/07/14 01:08:16;;;;;;;10.95;10.05;;;;;;;20.28;89.60;99398.19;1749428;82;20966;-66
2021/07/14 01:10:50;;;;;;;15.13;10.80;;;;;;;20.26;89.41;99398.79;1749685;82;21458;-66
2021/07/14 01:13:25;;;;;;;11.43;9.35;;;;;;;20.22;89.26;99394.23;1740016;81;21420;-66
2021/07/14 01:16:03;;;;;;;20.43;10.32;;;;;;;20.20;89.07;99394.84;1771143;81;20986;-66
2021/07/14 01:18:54;;;;;;;10.32;9.38;;;;;;;20.18;88.91;99398.59;1771359;81;21121;-66
2021/07/14 01:21:42;;;;;;;21.33;11.08;;;;;;;20.15;88.97;99394.41;1745544;81;21037;-66
2021/07/14 01:24:20;;;;;;;13.20;10.60;;;;;;;20.13;88.93;99397.65;1771457;81;21467;-66
2021/07/14 01:27:13;;;;;;;11.40;10.23;;;;;;;20.11;89.03;99400.89;1771488;81;20955;-66
2021/07/14 01:29:46;;;;;;;11.93;9.05;;;;;;;20.09;89.03;99397.54;1771532;81;20935;-65
2021/07/14 01:32:13;;;;;;;11.00;10.00;;;;;;;20.08;89.47;99401.14;1771157;81;21145;-65
2021/07/14 01:34:46;;;;;;;10.75;9.85;;;;;;;20.05;89.58;99397.42;1771256;81;21530;-66
2021/07/14 01:37:14;;;;;;;12.28;9.83;;;;;;;20.04;89.53;99398.39;1771340;81;21482;-66
2021/07/14 01:39:40;;;;;;;10.78;9.18;;;;;;;20.02;89.52;99396.34;1771232;81;21010;-66
2021/07/14 01:42:08;;;;;;;9.70;8.68;;;;;;;20.00;89.51;99396.95;1771268;81;21440;-66
2021/07/14 01:44:35;;;;;;;10.65;8.75;;;;;;;19.97;89.50;99391.95;1745657;81;21093;-66
2021/07/14 01:47:01;;;;;;;15.80;9.88;;;;;;;19.95;89.55;99389.91;1771227;81;20986;-66
2021/07/14 01:49:29;;;;;;;15.08;10.25;;;;;;;19.94;89.65;99397.00;1771309;81;20975;-66
2021/07/14 01:52:03;;;;;;;10.85;9.78;;;;;;;19.91;89.78;99395.08;1771244;81;20955;-66
2021/07/14 01:54:30;;;;;;;16.23;9.25;;;;;;;19.90;89.75;99395.56;1771632;81;21050;-65
2021/07/14 01:56:58;;;;;;;10.15;9.23;;;;;;;19.89;90.00;99393.04;1771364;81;21820;-65
2021/07/14 01:59:27;;;;;;;13.60;10.00;;;;;;;19.88;90.13;99390.88;1771444;81;20986;-65
2021/07/14 02:01:53;;;;;;;22.77;12.07;;;;;;;19.89;90.20;99391.72;1771220;81;20995;-65
2021/07/14 02:04:33;;;;;;;30.68;12.98;;;;;;;19.89;90.38;99392.56;1771109;81;21010;-66
2021/07/14 02:07:05;;;;;;;10.00;8.68;;;;;;;19.89;90.59;99393.88;1771551;81;21050;-66
2021/07/14 02:09:38;;;;;;;9.45;8.58;;;;;;;19.90;90.48;99398.20;1771358;81;21802;-66
2021/07/14 02:12:16;;;;;;;10.30;9.50;;;;;;;19.91;90.43;99402.52;1769543;81;21039;-66
2021/07/14 02:14:50;;;;;;;15.90;10.18;;;;;;;19.92;90.32;99401.55;1753687;81;20983;-66
2021/07/14 02:17:19;;;;;;;58.58;13.00;;;;;;;19.94;90.25;99414.16;1763243;81;20948;-65
2021/07/14 02:19:57;;;;;;;20.00;8.93;;;;;;;19.94;90.13;99411.99;1763433;81;20956;-66
2021/07/14 02:22:24;;;;;;;10.70;8.68;;;;;;;19.97;89.98;99419.67;1763223;81;21207;-65
2021/07/14 02:24:50;;;;;;;15.30;9.80;;;;;;;20.01;89.96;99418.43;1763430;81;21467;-65
2021/07/14 02:27:17;;;;;;;12.40;8.80;;;;;;;20.06;90.02;99425.50;1763334;81;21003;-65
2021/07/14 02:29:44;;;;;;;13.58;9.43;;;;;;;20.14;89.94;99416.97;1763239;81;21039;-65
2021/07/14 02:32:14;;;;;;;9.13;8.23;;;;;;;20.24;89.68;99415.23;1763231;81;21034;-65
2021/07/14 02:34:42;;;;;;;10.28;9.28;;;;;;;20.38;89.22;99421.59;1763447;81;21905;-65
2021/07/14 02:37:10;;;;;;;12.43;9.03;;;;;;;20.51;88.71;99427.53;1763418;81;21003;-65
2021/07/14 02:39:38;;;;;;;24.82;10.95;;;;;;;20.67;88.14;99426.25;1763329;81;21450;-65
2021/07/14 02:42:09;;;;;;;9.73;8.68;;;;;;;20.82;87.37;99419.66;1763573;81;20943;-65
2021/07/14 02:44:39;;;;;;;14.78;8.28;;;;;;;21.01;86.55;99427.71;1763389;81;20975;-65
2021/07/14 02:47:04;;;;;;;10.82;8.03;;;;;;;21.22;85.51;99425.91;1737790;81;21824;-65
2021/07/14 02:49:32;;;;;;;17.50;8.73;;;;;;;21.42;84.45;99428.64;1763195;81;21030;-65
2021/07/14 02:51:59;;;;;;;16.82;10.80;;;;;;;21.59;83.67;99436.78;1763278;81;20943;-65
2021/07/14 02:54:28;;;;;;;11.90;8.90;;;;;;;21.79;83.03;99429.73;1763206;81;21948;-65
2021/07/14 02:57:02;;;;;;;10.38;8.28;;;;;;;22.05;82.06;99434.08;1763595;81;21463;-66
2021/07/14 02:59:35;;;;;;;25.12;9.40;;;;;;;22.30;80.54;99428.25;1763400;81;21869;-64
2021/07/14 03:02:02;;;;;;;21.37;9.35;;;;;;;22.55;79.65;99426.86;1763537;81;20999;-64
2021/07/14 03:04:37;;;;;;;25.05;11.53;;;;;;;22.86;79.07;99426.70;1763340;81;21034;-65
2021/07/14 03:07:07;;;;;;;12.53;10.88;;;;;;;23.18;78.38;99423.70;1763297;81;48674;-65
2021/07/14 03:09:40;;;;;;;18.50;10.30;;;;;;;23.52;77.51;99422.69;1763264;81;21507;-65
2021/07/14 03:12:11;;;;;;;8.05;7.22;;;;;;;23.86;75.90;99422.42;1762573;81;20920;-65
2021/07/14 03:14:42;;;;;;;9.18;8.28;;;;;;;24.19;73.57;99429.39;1746830;82;20947;-65
2021/07/14 03:17:09;;;;;;;9.38;8.55;;;;;;;24.50;71.86;99424.58;1746964;80;21002;-65
2021/07/14 03:19:37;;;;;;;9.98;9.08;;;;;;;24.82;70.66;99425.31;1702478;82;20947;-65
2021/07/14 03:22:04;;;;;;;10.28;8.53;;;;;;;25.16;69.45;99426.75;1726398;82;21041;-65
2021/07/14 03:24:33;;;;;;;8.80;7.97;;;;;;;25.47;68.10;99417.25;1746809;82;21133;-65
2021/07/14 03:27:04;;;;;;;11.00;9.75;;;;;;;25.81;66.84;99420.40;1747062;82;21038;-65
2021/07/14 03:29:32;;;;;;;9.73;8.95;;;;;;;26.13;65.67;99428.49;1747141;82;21022;-65
2021/07/14 03:32:01;;;;;;;13.68;10.13;;;;;;;26.46;64.41;99437.39;1747010;82;20991;-65
2021/07/14 03:34:30;;;;;;;11.75;9.35;;;;;;;26.78;63.55;99427.73;1746968;80;21408;-65
2021/07/14 03:36:57;;;;;;;15.45;9.55;;;;;;;27.10;62.53;99431.72;1746760;82;21087;-65
2021/07/14 03:39:24;;;;;;;11.15;9.13;;;;;;;27.44;61.33;99429.61;1746749;82;21019;-66
2021/07/14 03:41:50;;;;;;;12.30;9.05;;;;;;;27.77;60.26;99430.36;1725861;82;21089;-66
2021/07/14 03:44:17;;;;;;;10.65;8.55;;;;;;;28.10;59.06;99436.84;1747016;82;20987;-66
2021/07/14 03:46:46;;;;;;;12.23;9.25;;;;;;;28.41;57.89;99437.66;1746934;82;20983;-66
2021/07/14 03:49:13;;;;;;;19.82;9.60;;;;;;;28.71;57.07;99441.28;1746763;82;23269;-66
2021/07/14 03:51:44;;;;;;;12.07;9.35;;;;;;;28.97;56.12;99440.91;1746733;82;21042;-66
2021/07/14 03:54:14;;;;;;;14.95;9.73;;;;;;;29.26;55.29;99442.78;1746823;82;21034;-66
2021/07/14 03:56:40;;;;;;;12.40;9.30;;;;;;;29.56;54.31;99446.33;1725823;82;21100;-66
2021/07/14 03:59:08;;;;;;;11.53;9.43;;;;;;;29.83;53.60;99437.59;1726033;82;20947;-66
2021/07/14 04:01:35;;;;;;;10.95;9.90;;;;;;;30.11;52.82;99432.38;1746839;82;21146;-66
2021/07/14 04:04:01;;;;;;;10.30;9.40;;;;;;;30.39;51.56;99433.78;1750435;81;20986;-66
2021/07/14 04:06:34;;;;;;;17.37;9.98;;;;;;;30.59;50.79;99431.32;1746962;80;21034;-66
2021/07/14 04:09:23;;;;;;;13.43;9.60;;;;;;;30.77;50.48;99430.37;1746965;82;21022;-66
2021/07/14 04:11:56;;;;;;;10.58;9.68;;;;;;;31.01;50.20;99429.08;1746809;82;20986;-66
2021/07/14 04:14:25;;;;;;;25.32;11.33;;;;;;;31.30;49.50;99421.86;1762525;80;21431;-67
2021/07/14 04:16:53;;;;;;;11.35;9.73;;;;;;;31.53;48.78;99423.75;1765418;81;20975;-67
2021/07/14 04:19:20;;;;;;;12.23;10.95;;;;;;;31.74;48.10;99419.64;1765365;81;21034;-67
2021/07/14 04:21:47;;;;;;;11.15;10.25;;;;;;;31.97;47.39;99423.86;1765465;81;20932;-67
2021/07/14 04:24:13;;;;;;;12.28;10.53;;;;;;;32.15;46.97;99429.48;1765379;81;20988;-67
2021/07/14 04:26:41;;;;;;;12.18;10.45;;;;;;;32.36;46.47;99427.19;1765408;81;21131;-67
2021/07/14 04:29:08;;;;;;;18.30;10.50;;;;;;;32.60;46.06;99435.16;1765522;81;20919;-67
2021/07/14 04:31:35;;;;;;;11.08;9.98;;;;;;;32.82;45.73;99429.91;1765394;81;20940;-67
2021/07/14 04:34:02;;;;;;;11.28;10.00;;;;;;;33.01;45.13;99431.76;1765248;81;21042;-66
2021/07/14 04:36:29;;;;;;;11.75;10.58;;;;;;;33.18;44.73;99432.14;1765362;81;21451;-67
2021/07/14 04:38:57;;;;;;;14.85;10.38;;;;;;;33.35;43.91;99437.45;1765259;81;21092;-67
2021/07/14 04:41:24;;;;;;;13.62;10.90;;;;;;;33.50;43.54;99434.50;1765402;81;21491;-67
2021/07/14 04:43:51;;;;;;;17.40;11.95;;;;;;;33.66;43.05;99436.72;1765270;81;20999;-67
2021/07/14 04:46:17;;;;;;;15.80;11.45;;;;;;;33.81;42.60;99431.91;1765301;81;20952;-67
2021/07/14 04:48:44;;;;;;;30.10;12.33;;;;;;;33.99;42.19;99427.66;1765445;81;21443;-67
2021/07/14 04:51:11;;;;;;;25.25;13.40;;;;;;;34.17;41.60;99426.45;1765651;81;21103;-67
2021/07/14 04:53:38;;;;;;;13.70;10.85;;;;;;;34.30;41.39;99437.70;1765240;81;20979;-67
2021/07/14 04:56:04;;;;;;;17.62;11.10;;;;;;;34.42;41.04;99431.89;1765501;81;21447;-67
2021/07/14 04:58:32;;;;;;;18.05;12.05;;;;;;;34.53;40.59;99432.03;1765475;81;21411;-64
2021/07/14 05:00:59;;;;;;;18.32;11.43;;;;;;;34.68;40.52;99435.76;1765321;81;20979;-66
2021/07/14 05:03:25;;;;;;;13.70;10.82;;;;;;;34.77;40.59;99432.27;1765482;81;21129;-66
2021/07/14 05:05:52;;;;;;;16.05;10.38;;;;;;;34.84;40.69;99430.34;1765429;81;20999;-66
2021/07/14 05:08:18;;;;;;;16.00;11.33;;;;;;;35.03;40.40;99432.04;1765514;81;21015;-66
2021/07/14 05:10:48;;;;;;;12.73;10.80;;;;;;;35.28;40.33;99432.03;1765547;81;20940;-66
2021/07/14 05:13:13;;;;;;;13.72;10.58;;;;;;;35.51;39.78;99429.48;1760155;80;20967;-66
2021/07/14 05:15:39;;;;;;;14.60;10.78;;;;;;;35.75;39.49;99427.75;1722748;82;21104;-65
2021/07/14 05:18:06;;;;;;;26.37;12.88;;;;;;;35.98;39.32;99431.63;1724548;82;20983;-65
2021/07/14 05:20:32;;;;;;;31.33;13.15;;;;;;;36.19;39.01;99433.83;1718618;82;21006;-66
2021/07/14 05:22:59;;;;;;;12.40;10.63;;;;;;;36.28;39.09;99429.77;1717717;82;20942;-67
2021/07/14 05:25:25;;;;;;;22.75;12.43;;;;;;;36.44;38.90;99429.11;1717099;82;21422;-68
2021/07/14 05:27:53;;;;;;;28.62;11.25;;;;;;;36.63;38.64;99439.33;1717631;83;21151;-68
2021/07/14 05:30:20;;;;;;;17.27;11.70;;;;;;;36.75;38.33;99436.16;1719041;81;21504;-67
2021/07/14 05:32:47;;;;;;;27.45;12.70;;;;;;;36.92;38.15;99441.70;1719115;82;20950;-67
2021/07/14 05:35:14;;;;;;;26.33;13.28;;;;;;;37.09;37.97;99439.93;1717138;83;21038;-69
2021/07/14 05:37:41;;;;;;;32.15;12.40;;;;;;;37.30;37.61;99442.59;1716496;82;21077;-65
2021/07/14 05:40:09;;;;;;;11.15;10.05;;;;;;;37.42;37.45;99435.79;1716169;82;21892;-66
2021/07/14 05:42:35;;;;;;;26.48;11.85;;;;;;;37.43;37.15;99438.27;1735179;82;21004;-67
2021/07/14 05:45:03;;;;;;;27.27;12.85;;;;;;;37.44;37.01;99434.49;1671946;85;21062;-67
2021/07/14 05:47:29;;;;;;;45.03;12.28;;;;;;;37.52;37.11;99435.48;1678905;84;21015;-67
2021/07/14 05:49:55;;;;;;;14.53;12.23;;;;;;;37.66;36.58;99438.78;1698149;84;21426;-66
2021/07/14 05:52:22;;;;;;;12.95;11.50;;;;;;;37.72;36.64;99435.11;1704995;84;21139;-67
2021/07/14 05:54:48;;;;;;;18.75;11.38;;;;;;;37.69;36.41;99435.59;1693088;84;21010;-67
2021/07/14 05:57:15;;;;;;;16.97;11.38;;;;;;;37.61;36.22;99434.56;1679683;83;20951;-66
2021/07/14 05:59:41;;;;;;;17.60;11.80;;;;;;;37.50;36.39;99436.26;1677569;84;21010;-67
2021/07/14 06:02:09;;;;;;;12.20;11.18;;;;;;;37.33;36.92;99436.70;1676978;85;21003;-67
2021/07/14 06:04:35;;;;;;;11.53;10.15;;;;;;;37.13;36.97;99439.76;1677391;85;21071;-66
2021/07/14 06:07:04;;;;;;;13.05;11.12;;;;;;;36.91;36.73;99438.16;1676894;85;21066;-67
2021/07/14 06:09:31;;;;;;;11.93;10.10;;;;;;;36.62;37.32;99435.50;1679217;84;20979;-67
2021/07/14 06:11:57;;;;;;;17.40;9.08;;;;;;;36.16;37.56;99432.43;1676471;85;21074;-66
2021/07/14 06:14:24;;;;;;;9.23;8.43;;;;;;;35.86;37.61;99436.47;1684908;83;21576;-67
2021/07/14 06:16:52;;;;;;;12.23;8.08;;;;;;;35.64;36.56;99430.37;1663286;85;21148;-67
2021/07/14 06:19:20;;;;;;;9.13;7.28;;;;;;;35.37;36.58;99433.41;1706474;83;21002;-67
2021/07/14 06:21:47;;;;;;;12.68;7.72;;;;;;;35.15;36.95;99424.87;1724320;81;21029;-68
2021/07/14 06:24:14;;;;;;;10.50;6.83;;;;;;;34.95;36.88;99425.59;1697216;83;21029;-66
2021/07/14 06:26:40;;;;;;;6.97;6.28;;;;;;;34.72;37.15;99429.39;1724289;82;21111;-68
2021/07/14 06:29:08;;;;;;;10.40;5.87;;;;;;;34.52;37.39;99431.73;1716238;83;21146;-68
2021/07/14 06:31:35;;;;;;;6.62;5.33;;;;;;;34.39;37.23;99425.05;1665751;84;20954;-69
2021/07/14 06:34:01;;;;;;;10.03;5.65;;;;;;;34.33;36.97;99431.35;1695154;84;21022;-65
2021/07/14 06:36:28;;;;;;;8.15;6.15;;;;;;;34.25;37.29;99432.09;1666058;86;21064;-68
2021/07/14 06:38:54;;;;;;;6.17;5.58;;;;;;;34.13;37.99;99431.97;1696371;83;21090;-69
2021/07/14 06:41:23;;;;;;;8.70;6.15;;;;;;;34.01;38.39;99426.41;1695444;83;21106;-67
2021/07/14 06:43:50;;;;;;;13.90;6.28;;;;;;;33.90;38.37;99425.75;1674340;84;20960;-67
2021/07/14 06:46:18;;;;;;;18.85;7.45;;;;;;;33.78;39.11;99429.63;1698359;83;21049;-68
2021/07/14 06:48:44;;;;;;;8.25;6.30;;;;;;;33.68;40.00;99433.80;1695075;83;21573;-68
2021/07/14 06:51:13;;;;;;;19.07;8.55;;;;;;;33.52;39.91;99430.55;1694132;83;21588;-69
2021/07/14 06:53:39;;;;;;;11.88;6.62;;;;;;;33.34;41.11;99433.09;1695267;84;21215;-69
2021/07/14 06:56:06;;;;;;;14.40;6.75;;;;;;;33.18;40.24;99432.14;1696034;83;20998;-69
2021/07/14 06:58:39;;;;;;;22.02;7.03;;;;;;;32.99;40.41;99432.48;1695357;84;21068;-69
2021/07/14 07:01:02;;;;;;;10.75;7.08;;;;;;;32.78;40.18;99440.27;1696112;83;21125;-68
2021/07/14 07:03:28;;;;;;;10.38;6.67;;;;;;;32.66;41.30;99444.59;1695606;83;21544;-68
2021/07/14 07:05:55;;;;;;;8.70;6.75;;;;;;;32.56;41.27;99441.50;1711553;83;21208;-67
2021/07/14 07:08:21;;;;;;;8.50;6.70;;;;;;;32.44;41.82;99441.26;1701361;82;21026;-68
2021/07/14 07:10:50;;;;;;;6.80;6.20;;;;;;;32.34;41.93;99442.70;1714007;81;21422;-67
2021/07/14 07:13:18;;;;;;;11.03;6.70;;;;;;;32.22;41.24;99440.28;1696811;83;20981;-68
2021/07/14 07:15:46;;;;;;;11.85;8.60;;;;;;;32.12;42.38;99449.56;1689608;84;21114;-69
2021/07/14 07:18:15;;;;;;;7.50;6.78;;;;;;;31.98;42.98;99447.84;1719209;82;22231;-70
2021/07/14 07:20:42;;;;;;;18.82;8.90;;;;;;;31.85;43.08;99441.08;1733344;82;21600;-67
2021/07/14 07:23:10;;;;;;;10.85;7.20;;;;;;;31.81;43.60;99438.47;1721830;82;20987;-68
2021/07/14 07:25:38;;;;;;;6.83;6.40;;;;;;;31.82;43.42;99436.92;1736014;80;21010;-68
2021/07/14 07:28:11;;;;;;;7.12;6.53;;;;;;;31.85;43.25;99433.84;1717085;83;21004;-67
2021/07/14 07:30:33;;;;;;;8.10;6.03;;;;;;;31.86;43.28;99434.66;1730708;82;21183;-70
2021/07/14 07:33:00;;;;;;;7.45;6.72;;;;;;;31.82;43.33;99430.72;1746866;82;21427;-68
2021/07/14 07:35:27;;;;;;;14.05;6.08;;;;;;;31.80;43.66;99432.77;1746925;82;20935;-67
2021/07/14 07:37:53;;;;;;;6.30;5.83;;;;;;;31.78;43.31;99431.63;1744637;80;20963;-68
2021/07/14 07:40:20;;;;;;;20.30;6.90;;;;;;;31.75;43.35;99423.16;1746775;82;21394;-67
2021/07/14 07:42:47;;;;;;;8.15;6.33;;;;;;;31.74;43.98;99421.50;1746792;82;21141;-68
2021/07/14 07:45:14;;;;;;;6.55;5.95;;;;;;;31.73;43.76;99419.84;1730857;82;21117;-66
2021/07/14 07:47:41;;;;;;;6.15;5.65;;;;;;;31.71;43.60;99424.06;1717220;83;21545;-66
2021/07/14 07:50:11;;;;;;;7.50;5.75;;;;;;;31.70;43.76;99423.75;1717101;82;20955;-67
2021/07/14 07:52:37;;;;;;;7.15;5.62;;;;;;;31.68;44.38;99421.78;1719979;82;20946;-69
2021/07/14 07:55:09;;;;;;;6.67;5.80;;;;;;;31.67;44.44;99416.59;1746622;80;21136;-66
2021/07/14 07:57:39;;;;;;;10.60;6.45;;;;;;;31.72;44.40;99419.52;1729319;82;21026;-66
2021/07/14 08:00:11;;;;;;;12.65;6.00;;;;;;;31.76;44.65;99411.38;1746767;82;20943;-66
2021/07/14 08:02:41;;;;;;;17.00;6.30;;;;;;;31.82;44.30;99414.58;1718599;82;21042;-67
2021/07/14 08:05:10;;;;;;;7.55;6.03;;;;;;;31.90;43.55;99414.92;1726655;82;20974;-68
2021/07/14 08:07:38;;;;;;;6.03;5.33;;;;;;;31.97;43.26;99419.82;1742177;82;20928;-69
2021/07/14 08:10:07;;;;;;;9.55;5.95;;;;;;;32.01;43.00;99415.16;1738674;82;21106;-67
2021/07/14 08:12:33;;;;;;;8.70;6.00;;;;;;;32.05;43.30;99408.86;1716969;83;21005;-67
2021/07/14 08:15:03;;;;;;;13.93;6.40;;;;;;;32.09;43.88;99417.67;1719005;82;21029;-67
2021/07/14 08:17:30;;;;;;;5.28;4.87;;;;;;;32.13;43.11;99423.48;1717033;81;21100;-68
2021/07/14 08:20:00;;;;;;;8.88;5.42;;;;;;;32.16;42.46;99418.53;1717153;82;20975;-68
2021/07/14 08:22:28;;;;;;;7.62;6.58;;;;;;;32.19;42.40;99418.61;1716958;83;20990;-71
2021/07/14 08:25:00;;;;;;;6.45;4.87;;;;;;;32.17;42.23;99413.98;1737477;82;20982;-66
2021/07/14 08:27:32;;;;;;;6.60;5.05;;;;;;;32.12;41.33;99415.09;1733714;80;20998;-67
2021/07/14 08:30:00;;;;;;;6.83;5.22;;;;;;;32.06;41.43;99414.03;1746721;82;21046;-66
2021/07/14 08:32:27;;;;;;;15.40;6.22;;;;;;;32.07;41.51;99418.91;1729843;82;21147;-68
2021/07/14 08:34:55;;;;;;;6.45;5.90;;;;;;;32.10;41.96;99417.98;1746647;82;21534;-67
2021/07/14 08:37:23;;;;;;;5.92;5.53;;;;;;;32.12;41.73;99421.82;1740447;80;21002;-66
2021/07/14 08:39:52;;;;;;;6.20;5.20;;;;;;;32.12;41.35;99417.78;1746262;82;21081;-67
2021/07/14 08:42:20;;;;;;;15.58;6.28;;;;;;;32.04;40.87;99412.06;1746829;82;20970;-68
2021/07/14 08:44:49;;;;;;;6.37;5.87;;;;;;;31.97;41.45;99412.58;1734049;82;21045;-65
2021/07/14 08:47:16;;;;;;;12.50;6.65;;;;;;;31.92;42.04;99412.35;1717191;83;20990;-67
2021/07/14 08:49:44;;;;;;;8.63;5.50;;;;;;;31.93;41.73;99417.22;1720122;82;21029;-68
2021/07/14 08:52:12;;;;;;;8.90;6.12;;;;;;;31.94;41.24;99415.67;1745095;82;21046;-68
2021/07/14 08:54:43;;;;;;;8.73;5.47;;;;;;;31.99;41.13;99411.84;1731728;82;21471;-68
2021/07/14 08:57:11;;;;;;;9.38;6.28;;;;;;;32.00;41.12;99411.32;1717358;82;21115;-67
2021/07/14 08:59:37;;;;;;;7.80;6.12;;;;;;;31.95;41.47;99415.98;1717266;83;20940;-68
2021/07/14 09:02:05;;;;;;;7.03;6.30;;;;;;;31.91;41.94;99412.55;1717023;83;20990;-66
2021/07/14 09:04:32;;;;;;;7.47;6.35;;;;;;;31.95;41.79;99411.95;1717123;83;21082;-67
2021/07/14 09:07:00;;;;;;;7.72;5.90;;;;;;;32.01;41.80;99402.22;1717010;83;21475;-66
2021/07/14 09:09:27;;;;;;;18.10;6.20;;;;;;;32.05;42.31;99400.27;1717083;83;21145;-67
2021/07/14 09:11:58;;;;;;;9.20;5.90;;;;;;;32.16;42.06;99404.24;1716915;83;20982;-67
2021/07/14 09:14:35;;;;;;;8.10;6.90;;;;;;;32.27;40.71;99402.83;1717378;82;21014;-67
2021/07/14 09:17:25;;;;;;;11.95;6.45;;;;;;;32.38;40.70;99395.48;1719358;83;20934;-66
2021/07/14 09:20:00;;;;;;;9.08;6.53;;;;;;;32.50;40.46;99398.72;1719611;83;21617;-67
2021/07/14 09:22:33;;;;;;;11.60;6.65;;;;;;;32.64;39.98;99397.36;1719563;83;21173;-68
2021/07/14 09:25:00;;;;;;;6.22;5.62;;;;;;;32.73;39.74;99387.56;1719639;83;20927;-67
2021/07/14 09:27:28;;;;;;;7.92;5.87;;;;;;;32.78;39.50;99388.26;1693355;83;20970;-66
2021/07/14 09:30:18;;;;;;;8.18;5.83;;;;;;;32.78;39.37;99389.61;1719649;83;20995;-67
2021/07/14 09:32:56;;;;;;;7.80;6.67;;;;;;;32.79;40.08;99393.44;1722759;82;20998;-66
2021/07/14 09:35:30;;;;;;;11.50;6.37;;;;;;;32.79;40.03;99389.92;1745260;82;21784;-66
2021/07/14 09:38:00;;;;;;;7.87;6.15;;;;;;;32.82;39.54;99390.85;1747949;82;21073;-66
2021/07/14 09:40:26;;;;;;;6.83;6.12;;;;;;;32.76;39.68;99391.70;1748476;81;21080;-67
2021/07/14 09:43:02;;;;;;;6.22;5.62;;;;;;;32.62;40.01;99388.14;1748219;82;20987;-67
2021/07/14 09:45:41;;;;;;;10.43;6.90;;;;;;;32.57;39.98;99387.95;1747763;82;22165;-66
2021/07/14 09:48:09;;;;;;;8.35;5.37;;;;;;;32.63;40.43;99383.06;1725917;82;21165;-67
2021/07/14 09:50:39;;;;;;;8.00;5.75;;;;;;;32.73;39.85;99384.87;1715610;83;21042;-67
2021/07/14 09:53:09;;;;;;;8.08;6.08;;;;;;;32.82;39.71;99388.16;1719584;83;20975;-66
2021/07/14 09:55:36;;;;;;;7.80;5.45;;;;;;;32.91;39.51;99386.92;1719844;83;21447;-67
2021/07/14 09:58:13;;;;;;;9.18;5.75;;;;;;;33.03;39.98;99385.23;1719682;83;21038;-68
2021/07/14 10:00:54;;;;;;;11.33;5.78;;;;;;;33.14;40.02;99386.47;1719759;82;21170;-66
2021/07/14 10:03:34;;;;;;;12.35;6.33;;;;;;;33.27;39.91;99382.41;1719702;83;21074;-67
2021/07/14 10:06:11;;;;;;;8.38;6.47;;;;;;;33.39;39.24;99384.73;1719973;82;20976;-66
2021/07/14 10:08:43;;;;;;;6.20;5.30;;;;;;;33.45;38.49;99385.77;1722345;80;21574;-66
2021/07/14 10:11:25;;;;;;;5.83;5.33;;;;;;;33.46;38.35;99384.20;1746433;80;21066;-67
2021/07/14 10:13:59;;;;;;;7.75;5.62;;;;;;;33.48;38.48;99380.77;1682325;82;20966;-66
2021/07/14 10:16:39;;;;;;;9.50;5.62;;;;;;;33.46;38.88;99381.51;1747083;80;20966;-66
2021/07/14 10:19:12;;;;;;;7.53;5.47;;;;;;;33.48;39.71;99379.43;1746823;82;20947;-67
2021/07/14 10:21:45;;;;;;;13.32;5.83;;;;;;;33.62;38.54;99376.66;1746955;82;20972;-68
2021/07/14 10:24:14;;;;;;;8.98;5.12;;;;;;;33.75;37.90;99376.10;1746231;82;21034;-67
2021/07/14 10:26:46;;;;;;;23.77;6.40;;;;;;;33.88;37.97;99381.97;1746840;82;21023;-67
2021/07/14 10:29:13;;;;;;;9.20;5.95;;;;;;;34.00;38.26;99376.70;1740351;82;21074;-69
2021/07/14 10:31:41;;;;;;;8.33;5.65;;;;;;;34.11;37.83;99378.20;1744127;82;21009;-69
2021/07/14 10:34:09;;;;;;;9.53;5.78;;;;;;;34.26;37.29;99376.53;1730413;81;20967;-67
2021/07/14 10:36:37;;;;;;;9.33;5.72;;;;;;;34.40;37.32;99373.23;1725472;82;20999;-66
2021/07/14 10:39:10;;;;;;;7.03;5.72;;;;;;;34.49;36.71;99374.09;1732327;80;21222;-68
2021/07/14 10:41:37;;;;;;;8.63;5.62;;;;;;;34.57;36.38;99370.31;1739999;82;20939;-68
2021/07/14 10:44:07;;;;;;;13.38;5.80;;;;;;;34.62;36.34;99370.97;1734039;82;21001;-68
2021/07/14 10:46:37;;;;;;;12.43;6.40;;;;;;;34.63;36.36;99366.70;1696587;83;20949;-67
2021/07/14 10:49:08;;;;;;;15.90;5.80;;;;;;;34.65;36.26;99373.23;1735865;82;21002;-67
2021/07/14 10:51:37;;;;;;;6.55;5.60;;;;;;;34.66;35.71;99373.02;1724701;82;21451;-67
2021/07/14 10:54:11;;;;;;;8.08;6.30;;;;;;;34.70;35.73;99374.76;1715897;83;21073;-68
2021/07/14 10:56:43;;;;;;;20.02;6.17;;;;;;;34.71;36.07;99371.83;1734363;82;20989;-67
2021/07/14 10:59:10;;;;;;;7.78;5.40;;;;;;;34.66;35.41;99363.56;1724032;82;20963;-67
2021/07/14 11:01:49;;;;;;;7.30;6.17;;;;;;;34.62;35.68;99367.75;1739172;82;20919;-68
2021/07/14 11:04:31;;;;;;;13.00;5.83;;;;;;;34.58;35.74;99369.75;1746749;82;20966;-68
2021/07/14 11:07:04;;;;;;;18.90;7.33;;;;;;;34.57;35.94;99367.61;1747087;82;20951;-67
2021/07/14 11:09:43;;;;;;;16.30;6.40;;;;;;;34.59;36.67;99372.23;1747219;82;20962;-67
2021/07/14 11:12:12;;;;;;;5.83;5.25;;;;;;;34.63;36.29;99370.75;1735934;82;20943;-68
2021/07/14 11:14:44;;;;;;;8.38;5.37;;;;;;;34.70;36.03;99369.35;1747598;80;20919;-67
2021/07/14 11:17:11;;;;;;;13.50;5.95;;;;;;;34.77;35.78;99379.03;1765103;81;21773;-68
2021/07/14 11:19:51;;;;;;;11.08;5.85;;;;;;;34.85;35.64;99367.16;1755350;81;21034;-67
2021/07/14 11:22:45;;;;;;;8.85;5.58;;;;;;;34.91;35.43;99369.50;1734813;82;20924;-67
2021/07/14 11:25:26;;;;;;;16.25;5.58;;;;;;;34.83;34.87;99362.49;1734101;82;21113;-68
2021/07/14 11:27:58;;;;;;;6.17;5.35;;;;;;;34.67;35.22;99367.09;1734924;82;20999;-66
2021/07/14 11:30:31;;;;;;;8.08;5.30;;;;;;;34.66;35.49;99365.44;1749848;81;21114;-66
2021/07/14 11:32:58;;;;;;;31.05;7.55;;;;;;;34.71;35.92;99361.55;1735011;81;20991;-68
2021/07/14 11:35:38;;;;;;;10.08;6.40;;;;;;;34.74;35.61;99359.77;1740900;81;20998;-67
2021/07/14 11:38:06;;;;;;;10.28;5.92;;;;;;;34.76;35.76;99357.67;1741481;81;21538;-66
2021/07/14 11:40:39;;;;;;;11.93;6.15;;;;;;;34.79;35.59;99359.41;1756999;81;21031;-68
2021/07/14 11:43:14;;;;;;;12.30;6.08;;;;;;;34.86;36.05;99358.00;1742767;81;21321;-66
2021/07/14 11:45:47;;;;;;;13.13;6.20;;;;;;;34.96;36.26;99362.91;1735012;81;21070;-66